Eagle Virginia — S6HU8 — position and weather

sailwx.info

Track history (hours):
 
Tides and Currents Weather Stations Pressure Air Temp Water Temp Dewpoint Dewpoint Depression Visibility Wind Speed Wind Dir Waves Ship Positions

Eagle Virginia

Last reported at 2018-Jun-18 05:00 UTC. Time now 2018-Jun-18 05:22 UTC.
Position N 36°02' W 005°20'.

Length 333 m; draft 21.9 m.

Type: Tanker. MMSI: 564422000.

Date/timePositionNaut miles runAvg speedWind from/ knotsBaromVisibWave heightAir tempDewpointWater temp
2018-Jun-18 05:00N 36°02' W 005°20'611.5
2018-Jun-18 04:30N 36°03' W 005°13'1012.0
2018-Jun-18 03:43N 36°05' W 005°01'211.6
2018-Jun-18 03:30N 36°06' W 004°58'18511.6
2018-Jun-17 11:36N 36°47' W 001°14'212.4
2018-Jun-17 11:26N 36°48' W 001°12'912.5
2018-Jun-17 10:41N 36°51' W 001°01'212.3
2018-Jun-17 10:30N 36°52' W 000°58'812.1
2018-Jun-17 09:51N 36°56' W 000°49'412.3
2018-Jun-17 09:29N 36°57' W 000°44'1612.5
2018-Jun-17 08:12N 37°04' W 000°26'313.6
2018-Jun-17 07:58N 37°04' W 000°22'613.6
2018-Jun-17 07:30N 37°05' W 000°14'713.6
2018-Jun-17 07:00N 37°06' W 000°06'713.5
2018-Jun-17 06:30N 37°07' E 000°03'713.4
2018-Jun-17 06:00N 37°07' E 000°11'713.5
2018-Jun-17 05:30N 37°08' E 000°19'713.5
2018-Jun-17 05:00N 37°09' E 000°28'713.6
2018-Jun-17 04:30N 37°10' E 000°36'713.5
2018-Jun-17 04:00N 37°10' E 000°45'713.3
2018-Jun-17 03:28N 37°11' E 000°54'613.2
2018-Jun-17 03:00N 37°12' E 001°01'713.1
2018-Jun-17 02:30N 37°13' E 001°10'713.3
2018-Jun-17 02:00N 37°13' E 001°18'612.9
2018-Jun-17 01:30N 37°14' E 001°26'713.1
2018-Jun-17 01:00N 37°15' E 001°34'613.0
2018-Jun-17 00:30N 37°16' E 001°42'713.1
2018-Jun-17 00:00N 37°16' E 001°50'613.0
2018-Jun-16 23:30N 37°17' E 001°58'713.1
2018-Jun-16 23:00N 37°18' E 002°07'713.1
2018-Jun-16 22:29N 37°19' E 002°15'713.0
2018-Jun-16 21:59N 37°19' E 002°23'612.9
2018-Jun-16 21:30N 37°20' E 002°31'612.8
2018-Jun-16 21:00N 37°21' E 002°39'612.9
2018-Jun-16 20:30N 37°22' E 002°47'713.1
2018-Jun-16 20:00N 37°23' E 002°55'713.4
2018-Jun-16 19:30N 37°24' E 003°03'713.6
2018-Jun-16 18:59N 37°25' E 003°12'713.8
2018-Jun-16 18:30N 37°25' E 003°21'813.9
2018-Jun-16 17:57N 37°26' E 003°30'713.9
2018-Jun-16 17:25N 37°27' E 003°40'613.8
2018-Jun-16 16:59N 37°27' E 003°47'613.4
2018-Jun-16 16:30N 37°27' E 003°55'913.6
2018-Jun-16 15:50N 37°29' E 004°06'  
2018-Jun-10 19:33N 31°47' E 032°38'411.9
2018-Jun-10 19:12N 31°43' E 032°38'313.4
2018-Jun-10 19:00N 31°41' E 032°35'713.4
2018-Jun-10 18:30N 31°38' E 032°28'612.2
2018-Jun-10 18:01N 31°34' E 032°22'712.6
2018-Jun-10 17:29N 31°28' E 032°24'611.7
2018-Jun-10 17:00N 31°22' E 032°23'611.4
2018-Jun-10 16:31N 31°17' E 032°22'4 8.8
2018-Jun-10 16:00N 31°13' E 032°20'4 7.6
2018-Jun-10 15:30N 31°09' E 032°19'  
Track history (hours):
 
Tides and Currents Weather Stations Pressure Air Temp Water Temp Dewpoint Dewpoint Depression Visibility Wind Speed Wind Dir Waves Ship Positions

Eagle Virginia

Last reported at 2018-Jun-18 05:00 UTC. Time now 2018-Jun-18 05:22 UTC.
Position N 36°02' W 005°20'.

Length 333 m; draft 21.9 m.

Type: Tanker. MMSI: 564422000.

Date/timePositionNaut miles runAvg speedWind from/ knotsBaromVisibWave heightAir tempDewpointWater temp
2018-Jun-18 05:00N 36°02' W 005°20'611.5
2018-Jun-18 04:30N 36°03' W 005°13'1012.0
2018-Jun-18 03:43N 36°05' W 005°01'211.6
2018-Jun-18 03:30N 36°06' W 004°58'18511.6
2018-Jun-17 11:36N 36°47' W 001°14'212.4
2018-Jun-17 11:26N 36°48' W 001°12'912.5
2018-Jun-17 10:41N 36°51' W 001°01'212.3
2018-Jun-17 10:30N 36°52' W 000°58'812.1
2018-Jun-17 09:51N 36°56' W 000°49'412.3
2018-Jun-17 09:29N 36°57' W 000°44'1612.5
2018-Jun-17 08:12N 37°04' W 000°26'313.6
2018-Jun-17 07:58N 37°04' W 000°22'613.6
2018-Jun-17 07:30N 37°05' W 000°14'713.6
2018-Jun-17 07:00N 37°06' W 000°06'713.5
2018-Jun-17 06:30N 37°07' E 000°03'713.4
2018-Jun-17 06:00N 37°07' E 000°11'713.5
2018-Jun-17 05:30N 37°08' E 000°19'713.5
2018-Jun-17 05:00N 37°09' E 000°28'713.6
2018-Jun-17 04:30N 37°10' E 000°36'713.5
2018-Jun-17 04:00N 37°10' E 000°45'713.3
2018-Jun-17 03:28N 37°11' E 000°54'613.2
2018-Jun-17 03:00N 37°12' E 001°01'713.1
2018-Jun-17 02:30N 37°13' E 001°10'713.3
2018-Jun-17 02:00N 37°13' E 001°18'612.9
2018-Jun-17 01:30N 37°14' E 001°26'713.1
2018-Jun-17 01:00N 37°15' E 001°34'613.0
2018-Jun-17 00:30N 37°16' E 001°42'713.1
2018-Jun-17 00:00N 37°16' E 001°50'613.0
2018-Jun-16 23:30N 37°17' E 001°58'713.1
2018-Jun-16 23:00N 37°18' E 002°07'713.1
2018-Jun-16 22:29N 37°19' E 002°15'713.0
2018-Jun-16 21:59N 37°19' E 002°23'612.9
2018-Jun-16 21:30N 37°20' E 002°31'612.8
2018-Jun-16 21:00N 37°21' E 002°39'612.9
2018-Jun-16 20:30N 37°22' E 002°47'713.1
2018-Jun-16 20:00N 37°23' E 002°55'713.4
2018-Jun-16 19:30N 37°24' E 003°03'713.6
2018-Jun-16 18:59N 37°25' E 003°12'713.8
2018-Jun-16 18:30N 37°25' E 003°21'813.9
2018-Jun-16 17:57N 37°26' E 003°30'713.9
2018-Jun-16 17:25N 37°27' E 003°40'613.8
2018-Jun-16 16:59N 37°27' E 003°47'613.4
2018-Jun-16 16:30N 37°27' E 003°55'913.6
2018-Jun-16 15:50N 37°29' E 004°06'  
2018-Jun-10 19:33N 31°47' E 032°38'411.9
2018-Jun-10 19:12N 31°43' E 032°38'313.4
2018-Jun-10 19:00N 31°41' E 032°35'713.4
2018-Jun-10 18:30N 31°38' E 032°28'612.2
2018-Jun-10 18:01N 31°34' E 032°22'712.6
2018-Jun-10 17:29N 31°28' E 032°24'611.7
2018-Jun-10 17:00N 31°22' E 032°23'611.4
2018-Jun-10 16:31N 31°17' E 032°22'4 8.8
2018-Jun-10 16:00N 31°13' E 032°20'4 7.6
2018-Jun-10 15:30N 31°09' E 032°19'  

Dump ship's entire track history